KDPG

Michael AAF (Dugway Proving Ground) Airport

Dugway Proving Ground, Utah, USA
METAR KDPG 232250Z 25008KT 40SM FEW080 SCT170 BKN230 21/02 A2998 RMK VIRGA ALQDS CB DSNT NE E AND S SLP118 T02120017 LAST
Observed Flight Rules
May-23 @ 22:50 UTC (3 hours ago) Visual Flight Rules
Wind Visibility Clouds
250° at 8 knots 40 miles
  • Few at 8,000' AGL
  • Scattered at 17,000' AGL
  • Broken at 23,000' AGL
Temperatures Readings
Current 21°C / 70°F
Dewpoint 2°C / 36°F
Humidity 29%
Altimeter 29.98" Hg
Pressure 1011.8 hPa
Elevation 1326
METAR KDPG 232250Z 25008KT 40SM FEW080 SCT170 BKN230 21/02 A2998 RMK VIRGA ALQDS CB DSNT NE E AND S SLP118 T02120017 LAST
Observed Flight Rules
May-23 @ 22:50 UTC
(3 hours ago)
VFR
Wind Visibility
250° at 8 knots 40 miles
Clouds
  • Few at 8,000' AGL
  • Scattered at 17,000' AGL
  • Broken at 23,000' AGL
Temperature Dewpoint
21°C / 70°F 2°C / 36°F
Humidity Altimeter Pressure
29% 29.98" Hg 1011.8 hPa